sensor_id;sensor_type;location;lat;lon;timestamp;pressure;altitude;pressure_sealevel;temperature;humidity
60820;BME280;46641;48.904;9.126;2023-10-31T00:01:06;97006.78;;;17.60;58.03
60820;BME280;46641;48.904;9.126;2023-10-31T00:05:56;97006.22;;;17.58;58.18
60820;BME280;46641;48.904;9.126;2023-10-31T00:10:47;97016.22;;;17.56;57.97
60820;BME280;46641;48.904;9.126;2023-10-31T00:15:37;97028.50;;;17.50;58.25
60820;BME280;46641;48.904;9.126;2023-10-31T00:20:27;97050.69;;;17.49;58.01
60820;BME280;46641;48.904;9.126;2023-10-31T00:25:18;97061.38;;;17.43;58.39
60820;BME280;46641;48.904;9.126;2023-10-31T00:30:08;97062.75;;;17.34;57.76
60820;BME280;46641;48.904;9.126;2023-10-31T00:34:59;97061.91;;;17.21;57.66
60820;BME280;46641;48.904;9.126;2023-10-31T00:39:49;97070.72;;;17.15;57.71
60820;BME280;46641;48.904;9.126;2023-10-31T00:44:39;97071.16;;;17.12;57.28
60820;BME280;46641;48.904;9.126;2023-10-31T00:49:30;97072.44;;;17.10;58.17
60820;BME280;46641;48.904;9.126;2023-10-31T00:54:20;97080.59;;;17.08;57.95
60820;BME280;46641;48.904;9.126;2023-10-31T00:59:10;97089.56;;;17.07;57.25
60820;BME280;46641;48.904;9.126;2023-10-31T01:04:00;97094.13;;;17.00;57.45
60820;BME280;46641;48.904;9.126;2023-10-31T01:08:51;97093.28;;;16.99;58.18
60820;BME280;46641;48.904;9.126;2023-10-31T01:13:41;97081.34;;;16.97;56.63
60820;BME280;46641;48.904;9.126;2023-10-31T01:18:31;97093.97;;;16.95;57.43
60820;BME280;46641;48.904;9.126;2023-10-31T01:23:22;97075.03;;;16.98;56.55
60820;BME280;46641;48.904;9.126;2023-10-31T01:28:13;97069.31;;;17.01;57.46
60820;BME280;46641;48.904;9.126;2023-10-31T01:33:03;97078.28;;;17.00;57.86
60820;BME280;46641;48.904;9.126;2023-10-31T01:37:53;97093.44;;;17.04;57.92
60820;BME280;46641;48.904;9.126;2023-10-31T01:42:43;97105.19;;;17.09;57.94
60820;BME280;46641;48.904;9.126;2023-10-31T01:47:34;97122.78;;;17.15;57.40
60820;BME280;46641;48.904;9.126;2023-10-31T01:52:25;97121.53;;;17.17;57.56
60820;BME280;46641;48.904;9.126;2023-10-31T01:57:18;97123.38;;;17.17;57.47
60820;BME280;46641;48.904;9.126;2023-10-31T02:02:09;97120.38;;;17.13;57.61
60820;BME280;46641;48.904;9.126;2023-10-31T02:07:00;97132.56;;;17.14;57.75
60820;BME280;46641;48.904;9.126;2023-10-31T02:11:50;97146.59;;;17.15;57.35
60820;BME280;46641;48.904;9.126;2023-10-31T02:16:41;97157.84;;;17.10;57.38
60820;BME280;46641;48.904;9.126;2023-10-31T02:21:32;97160.34;;;17.05;57.20
60820;BME280;46641;48.904;9.126;2023-10-31T02:26:22;97166.50;;;16.99;57.34
60820;BME280;46641;48.904;9.126;2023-10-31T02:31:13;97156.72;;;16.99;57.86
60820;BME280;46641;48.904;9.126;2023-10-31T02:36:03;97147.00;;;17.00;57.85
60820;BME280;46641;48.904;9.126;2023-10-31T02:40:53;97160.78;;;17.02;57.96
60820;BME280;46641;48.904;9.126;2023-10-31T02:45:44;97173.78;;;17.03;58.07
60820;BME280;46641;48.904;9.126;2023-10-31T02:50:34;97179.28;;;17.02;57.79
60820;BME280;46641;48.904;9.126;2023-10-31T02:55:24;97175.03;;;17.01;57.60
60820;BME280;46641;48.904;9.126;2023-10-31T03:00:15;97173.44;;;17.00;57.76
60820;BME280;46641;48.904;9.126;2023-10-31T03:05:06;97172.59;;;16.99;57.69
60820;BME280;46641;48.904;9.126;2023-10-31T03:09:56;97193.53;;;17.01;57.96
60820;BME280;46641;48.904;9.126;2023-10-31T03:14:46;97200.28;;;16.97;57.69
60820;BME280;46641;48.904;9.126;2023-10-31T03:19:36;97211.06;;;16.95;57.90
60820;BME280;46641;48.904;9.126;2023-10-31T03:24:27;97217.97;;;16.96;57.93
60820;BME280;46641;48.904;9.126;2023-10-31T03:29:17;97216.59;;;16.94;57.87
60820;BME280;46641;48.904;9.126;2023-10-31T03:34:09;97226.56;;;16.92;58.30
60820;BME280;46641;48.904;9.126;2023-10-31T03:38:59;97212.75;;;16.90;57.85
60820;BME280;46641;48.904;9.126;2023-10-31T03:43:50;97217.47;;;16.88;57.90
60820;BME280;46641;48.904;9.126;2023-10-31T03:48:41;97217.91;;;16.85;58.29
60820;BME280;46641;48.904;9.126;2023-10-31T03:53:31;97226.88;;;16.84;57.91
60820;BME280;46641;48.904;9.126;2023-10-31T03:58:22;97226.28;;;16.81;58.25
60820;BME280;46641;48.904;9.126;2023-10-31T04:03:13;97223.63;;;16.81;58.09
60820;BME280;46641;48.904;9.126;2023-10-31T04:08:04;97223.25;;;16.78;58.11
60820;BME280;46641;48.904;9.126;2023-10-31T04:12:54;97233.81;;;16.78;58.02
60820;BME280;46641;48.904;9.126;2023-10-31T04:17:44;97229.56;;;16.77;57.71
60820;BME280;46641;48.904;9.126;2023-10-31T04:22:35;97236.66;;;16.76;58.05
60820;BME280;46641;48.904;9.126;2023-10-31T04:27:25;97238.72;;;16.74;58.22
60820;BME280;46641;48.904;9.126;2023-10-31T04:32:15;97245.63;;;16.75;58.05
60820;BME280;46641;48.904;9.126;2023-10-31T04:37:05;97255.56;;;16.73;57.95
60820;BME280;46641;48.904;9.126;2023-10-31T04:41:56;97257.00;;;16.76;58.13
60820;BME280;46641;48.904;9.126;2023-10-31T04:46:46;97252.94;;;16.73;57.84
60820;BME280;46641;48.904;9.126;2023-10-31T04:51:38;97262.69;;;16.73;58.04
60820;BME280;46641;48.904;9.126;2023-10-31T04:56:28;97261.88;;;16.72;58.17
60820;BME280;46641;48.904;9.126;2023-10-31T05:01:18;97262.31;;;16.69;57.99
60820;BME280;46641;48.904;9.126;2023-10-31T05:06:09;97256.66;;;16.66;57.69
60820;BME280;46641;48.904;9.126;2023-10-31T05:10:59;97261.78;;;16.60;57.52
60820;BME280;46641;48.904;9.126;2023-10-31T05:15:50;97262.44;;;16.56;57.80
60820;BME280;46641;48.904;9.126;2023-10-31T05:20:40;97281.53;;;16.58;57.95
60820;BME280;46641;48.904;9.126;2023-10-31T05:25:30;97282.34;;;16.58;58.22
60820;BME280;46641;48.904;9.126;2023-10-31T05:30:21;97285.78;;;16.59;58.06
60820;BME280;46641;48.904;9.126;2023-10-31T05:35:11;97282.09;;;16.60;58.16
60820;BME280;46641;48.904;9.126;2023-10-31T05:40:02;97286.22;;;16.56;58.37
60820;BME280;46641;48.904;9.126;2023-10-31T05:44:52;97274.03;;;16.55;58.46
60820;BME280;46641;48.904;9.126;2023-10-31T05:49:43;97280.31;;;16.54;58.13
60820;BME280;46641;48.904;9.126;2023-10-31T05:54:34;97284.81;;;16.53;58.36
60820;BME280;46641;48.904;9.126;2023-10-31T05:59:24;97294.78;;;16.51;57.84
60820;BME280;46641;48.904;9.126;2023-10-31T06:04:15;97310.03;;;16.49;58.31
60820;BME280;46641;48.904;9.126;2023-10-31T06:09:05;97322.44;;;16.49;58.46
60820;BME280;46641;48.904;9.126;2023-10-31T06:13:55;97325.88;;;16.49;58.34
60820;BME280;46641;48.904;9.126;2023-10-31T06:18:46;97337.47;;;16.48;58.54
60820;BME280;46641;48.904;9.126;2023-10-31T06:23:37;97330.78;;;16.46;58.57
60820;BME280;46641;48.904;9.126;2023-10-31T06:28:28;97341.78;;;16.43;58.42
60820;BME280;46641;48.904;9.126;2023-10-31T06:33:18;97364.13;;;16.40;58.44
60820;BME280;46641;48.904;9.126;2023-10-31T06:38:09;97362.53;;;16.39;58.64
60820;BME280;46641;48.904;9.126;2023-10-31T06:43:01;97360.69;;;16.40;58.33
60820;BME280;46641;48.904;9.126;2023-10-31T06:47:51;97354.00;;;16.37;56.94
60820;BME280;46641;48.904;9.126;2023-10-31T06:52:42;97361.75;;;16.32;58.11
60820;BME280;46641;48.904;9.126;2023-10-31T06:57:32;97372.09;;;16.33;58.42
60820;BME280;46641;48.904;9.126;2023-10-31T07:02:22;97388.56;;;16.35;58.43
60820;BME280;46641;48.904;9.126;2023-10-31T07:07:12;97400.13;;;16.34;58.52
60820;BME280;46641;48.904;9.126;2023-10-31T07:12:03;97401.13;;;16.33;58.66
60820;BME280;46641;48.904;9.126;2023-10-31T07:16:53;97408.03;;;16.34;58.42
60820;BME280;46641;48.904;9.126;2023-10-31T07:21:44;97419.63;;;16.33;58.79
60820;BME280;46641;48.904;9.126;2023-10-31T07:26:34;97421.03;;;16.36;58.68
60820;BME280;46641;48.904;9.126;2023-10-31T07:31:25;97426.31;;;16.36;58.61
60820;BME280;46641;48.904;9.126;2023-10-31T07:36:15;97436.06;;;16.35;58.60
60820;BME280;46641;48.904;9.126;2023-10-31T07:41:06;97437.53;;;15.60;57.55
60820;BME280;46641;48.904;9.126;2023-10-31T07:45:56;97443.19;;;15.83;56.94
60820;BME280;46641;48.904;9.126;2023-10-31T07:50:47;97442.78;;;15.86;56.55
60820;BME280;46641;48.904;9.126;2023-10-31T07:55:37;97448.59;;;15.95;56.43
60820;BME280;46641;48.904;9.126;2023-10-31T08:00:27;97455.31;;;15.98;56.21
60820;BME280;46641;48.904;9.126;2023-10-31T08:05:18;97440.31;;;15.92;56.46
60820;BME280;46641;48.904;9.126;2023-10-31T08:10:08;97454.53;;;15.84;56.47
60820;BME280;46641;48.904;9.126;2023-10-31T08:14:59;97456.94;;;15.92;56.41
60820;BME280;46641;48.904;9.126;2023-10-31T08:19:50;97465.50;;;15.87;56.40
60820;BME280;46641;48.904;9.126;2023-10-31T08:24:40;97466.31;;;15.75;56.68
60820;BME280;46641;48.904;9.126;2023-10-31T08:29:30;97475.25;;;15.80;56.59
60820;BME280;46641;48.904;9.126;2023-10-31T08:34:21;97486.19;;;15.91;56.60
60820;BME280;46641;48.904;9.126;2023-10-31T08:39:11;97492.25;;;15.98;56.25
60820;BME280;46641;48.904;9.126;2023-10-31T08:44:01;97499.97;;;16.06;56.56
60820;BME280;46641;48.904;9.126;2023-10-31T08:48:53;97505.00;;;16.14;56.38
60820;BME280;46641;48.904;9.126;2023-10-31T08:53:44;97504.41;;;16.19;56.36
60820;BME280;46641;48.904;9.126;2023-10-31T08:58:34;97506.41;;;16.23;56.46
60820;BME280;46641;48.904;9.126;2023-10-31T09:03:25;97493.81;;;16.25;56.62
60820;BME280;46641;48.904;9.126;2023-10-31T09:08:15;97498.69;;;16.28;56.43
60820;BME280;46641;48.904;9.126;2023-10-31T09:13:05;97503.53;;;16.31;56.61
60820;BME280;46641;48.904;9.126;2023-10-31T09:17:56;97499.47;;;16.35;56.47
60820;BME280;46641;48.904;9.126;2023-10-31T09:22:46;97503.28;;;16.40;56.50
60820;BME280;46641;48.904;9.126;2023-10-31T09:27:38;97502.06;;;16.42;56.46
60820;BME280;46641;48.904;9.126;2023-10-31T09:32:29;97508.34;;;16.48;56.31
60820;BME280;46641;48.904;9.126;2023-10-31T09:37:19;97513.00;;;16.52;56.22
60820;BME280;46641;48.904;9.126;2023-10-31T09:42:10;97512.38;;;16.50;56.41
60820;BME280;46641;48.904;9.126;2023-10-31T09:47:01;97511.53;;;16.56;56.69
60820;BME280;46641;48.904;9.126;2023-10-31T09:51:52;97509.91;;;16.62;56.30
60820;BME280;46641;48.904;9.126;2023-10-31T09:56:43;97513.97;;;16.65;55.20
60820;BME280;46641;48.904;9.126;2023-10-31T10:01:33;97512.53;;;16.62;54.99
60820;BME280;46641;48.904;9.126;2023-10-31T10:06:24;97506.88;;;16.58;54.91
60820;BME280;46641;48.904;9.126;2023-10-31T10:11:15;97494.69;;;16.57;55.36
60820;BME280;46641;48.904;9.126;2023-10-31T10:16:06;97494.69;;;16.51;54.17
60820;BME280;46641;48.904;9.126;2023-10-31T10:20:58;97496.34;;;16.52;55.43
60820;BME280;46641;48.904;9.126;2023-10-31T10:25:49;97501.75;;;16.64;55.72
60820;BME280;46641;48.904;9.126;2023-10-31T10:30:40;97508.84;;;16.70;55.25
60820;BME280;46641;48.904;9.126;2023-10-31T10:35:31;97514.34;;;16.75;55.70
60820;BME280;46641;48.904;9.126;2023-10-31T10:40:21;97522.44;;;16.80;55.82
60820;BME280;46641;48.904;9.126;2023-10-31T10:45:14;97522.22;;;16.81;55.78
60820;BME280;46641;48.904;9.126;2023-10-31T10:50:06;97525.66;;;16.89;55.00
60820;BME280;46641;48.904;9.126;2023-10-31T10:55:04;97525.22;;;16.92;54.85
60820;BME280;46641;48.904;9.126;2023-10-31T11:00:01;97524.19;;;16.93;55.11
60820;BME280;46641;48.904;9.126;2023-10-31T11:04:52;97525.19;;;16.98;54.98
60820;BME280;46641;48.904;9.126;2023-10-31T11:09:44;97519.69;;;17.00;55.48
60820;BME280;46641;48.904;9.126;2023-10-31T11:14:36;97524.94;;;17.07;55.19
60820;BME280;46641;48.904;9.126;2023-10-31T11:19:28;97529.84;;;17.03;55.07
60820;BME280;46641;48.904;9.126;2023-10-31T11:24:20;97528.22;;;17.02;53.99
60820;BME280;46641;48.904;9.126;2023-10-31T11:29:11;97536.91;;;17.09;54.17
60820;BME280;46641;48.904;9.126;2023-10-31T11:34:01;97543.22;;;17.08;54.21
60820;BME280;46641;48.904;9.126;2023-10-31T11:39:10;97544.25;;;17.07;54.05
60820;BME280;46641;48.904;9.126;2023-10-31T11:44:02;97547.91;;;17.13;55.00
60820;BME280;46641;48.904;9.126;2023-10-31T11:48:53;97546.41;;;17.23;53.95
60820;BME280;46641;48.904;9.126;2023-10-31T11:53:48;97557.16;;;17.22;55.16
60820;BME280;46641;48.904;9.126;2023-10-31T11:58:39;97552.88;;;16.89;54.53
60820;BME280;46641;48.904;9.126;2023-10-31T12:03:40;97559.94;;;17.02;54.15
60820;BME280;46641;48.904;9.126;2023-10-31T12:08:37;97560.66;;;17.16;52.70
60820;BME280;46641;48.904;9.126;2023-10-31T12:13:28;97556.78;;;17.18;53.10
60820;BME280;46641;48.904;9.126;2023-10-31T12:18:18;97556.78;;;17.18;53.84
60820;BME280;46641;48.904;9.126;2023-10-31T12:23:09;97560.94;;;17.08;54.88
60820;BME280;46641;48.904;9.126;2023-10-31T12:27:59;97568.81;;;16.63;55.75
60820;BME280;46641;48.904;9.126;2023-10-31T12:32:54;97566.00;;;16.51;55.94
60820;BME280;46641;48.904;9.126;2023-10-31T12:37:46;97566.56;;;16.79;54.83
60820;BME280;46641;48.904;9.126;2023-10-31T12:42:37;97572.88;;;16.78;53.87
60820;BME280;46641;48.904;9.126;2023-10-31T12:47:28;97575.66;;;16.90;53.16
60820;BME280;46641;48.904;9.126;2023-10-31T12:52:19;97574.59;;;16.40;54.75
60820;BME280;46641;48.904;9.126;2023-10-31T12:57:09;97577.69;;;16.88;53.60
60820;BME280;46641;48.904;9.126;2023-10-31T13:02:00;97583.06;;;17.13;53.31
60820;BME280;46641;48.904;9.126;2023-10-31T13:07:00;97583.53;;;17.35;53.02
60820;BME280;46641;48.904;9.126;2023-10-31T13:11:51;97591.81;;;17.45;53.07
60820;BME280;46641;48.904;9.126;2023-10-31T13:16:41;97607.09;;;17.43;53.11
60820;BME280;46641;48.904;9.126;2023-10-31T13:21:32;97608.13;;;17.42;53.13
60820;BME280;46641;48.904;9.126;2023-10-31T13:26:22;97607.69;;;17.45;53.40
60820;BME280;46641;48.904;9.126;2023-10-31T13:31:12;97606.63;;;17.53;53.20
60820;BME280;46641;48.904;9.126;2023-10-31T13:36:04;97611.91;;;17.53;53.48
60820;BME280;46641;48.904;9.126;2023-10-31T13:40:55;97611.50;;;17.56;53.35
60820;BME280;46641;48.904;9.126;2023-10-31T13:45:45;97620.22;;;17.57;53.89
60820;BME280;46641;48.904;9.126;2023-10-31T13:50:35;97630.63;;;17.58;53.76
60820;BME280;46641;48.904;9.126;2023-10-31T13:55:26;97633.47;;;17.57;53.68
60820;BME280;46641;48.904;9.126;2023-10-31T14:00:16;97636.72;;;17.59;53.70
60820;BME280;46641;48.904;9.126;2023-10-31T14:05:07;97635.25;;;17.63;53.65
60820;BME280;46641;48.904;9.126;2023-10-31T14:09:57;97640.94;;;17.66;53.60
60820;BME280;46641;48.904;9.126;2023-10-31T14:14:47;97640.94;;;17.66;53.45
60820;BME280;46641;48.904;9.126;2023-10-31T14:19:39;97637.03;;;17.69;53.23
60820;BME280;46641;48.904;9.126;2023-10-31T14:24:29;97635.44;;;17.68;53.75
60820;BME280;46641;48.904;9.126;2023-10-31T14:29:19;97646.44;;;17.65;53.75
60820;BME280;46641;48.904;9.126;2023-10-31T14:34:11;97650.31;;;17.62;53.00
60820;BME280;46641;48.904;9.126;2023-10-31T14:39:01;97653.97;;;17.61;53.36
60820;BME280;46641;48.904;9.126;2023-10-31T14:43:52;97661.97;;;17.55;53.99
60820;BME280;46641;48.904;9.126;2023-10-31T14:48:42;97665.81;;;17.59;54.14
60820;BME280;46641;48.904;9.126;2023-10-31T14:53:32;97673.34;;;17.62;54.06
60820;BME280;46641;48.904;9.126;2023-10-31T14:58:23;97669.00;;;17.67;54.29
60820;BME280;46641;48.904;9.126;2023-10-31T15:03:13;97680.19;;;17.69;53.98
60820;BME280;46641;48.904;9.126;2023-10-31T15:08:04;97683.69;;;17.63;53.32
60820;BME280;46641;48.904;9.126;2023-10-31T15:12:54;97691.91;;;17.55;53.80
60820;BME280;46641;48.904;9.126;2023-10-31T15:17:45;97697.81;;;17.50;53.81
60820;BME280;46641;48.904;9.126;2023-10-31T15:22:37;97701.13;;;17.39;53.87
60820;BME280;46641;48.904;9.126;2023-10-31T15:27:28;97706.44;;;17.39;54.47
60820;BME280;46641;48.904;9.126;2023-10-31T15:32:18;97724.28;;;17.44;54.72
60820;BME280;46641;48.904;9.126;2023-10-31T15:37:09;97728.34;;;17.46;54.75
60820;BME280;46641;48.904;9.126;2023-10-31T15:42:00;97735.69;;;17.44;55.01
60820;BME280;46641;48.904;9.126;2023-10-31T15:46:51;97736.06;;;17.48;54.85
60820;BME280;46641;48.904;9.126;2023-10-31T15:51:41;97748.06;;;17.50;54.76
60820;BME280;46641;48.904;9.126;2023-10-31T15:56:31;97744.63;;;17.50;54.80
60820;BME280;46641;48.904;9.126;2023-10-31T16:01:22;97753.16;;;17.52;54.97
60820;BME280;46641;48.904;9.126;2023-10-31T16:06:12;97755.81;;;17.52;54.90
60820;BME280;46641;48.904;9.126;2023-10-31T16:11:03;97767.41;;;17.51;55.09
60820;BME280;46641;48.904;9.126;2023-10-31T16:15:53;97776.38;;;17.50;55.19
60820;BME280;46641;48.904;9.126;2023-10-31T16:20:44;97781.28;;;17.46;55.17
60820;BME280;46641;48.904;9.126;2023-10-31T16:25:36;97783.31;;;17.44;55.24
60820;BME280;46641;48.904;9.126;2023-10-31T16:30:27;97792.88;;;17.45;55.23
60820;BME280;46641;48.904;9.126;2023-10-31T16:35:17;97799.19;;;17.44;55.32
60820;BME280;46641;48.904;9.126;2023-10-31T16:40:08;97803.03;;;17.42;55.45
60820;BME280;46641;48.904;9.126;2023-10-31T16:44:59;97820.56;;;17.43;55.46
60820;BME280;46641;48.904;9.126;2023-10-31T16:49:52;97833.97;;;17.41;55.58
60820;BME280;46641;48.904;9.126;2023-10-31T16:54:43;97829.09;;;17.38;55.59
60820;BME280;46641;48.904;9.126;2023-10-31T16:59:33;97830.94;;;17.38;55.73
60820;BME280;46641;48.904;9.126;2023-10-31T17:04:23;97838.06;;;17.37;55.69
60820;BME280;46641;48.904;9.126;2023-10-31T17:09:14;97854.97;;;17.36;55.67
60820;BME280;46641;48.904;9.126;2023-10-31T17:14:04;97848.88;;;17.36;55.76
60820;BME280;46641;48.904;9.126;2023-10-31T17:18:54;97856.19;;;17.34;55.90
60820;BME280;46641;48.904;9.126;2023-10-31T17:23:45;97859.88;;;17.33;55.57
60820;BME280;46641;48.904;9.126;2023-10-31T17:28:35;97875.72;;;17.33;55.90
60820;BME280;46641;48.904;9.126;2023-10-31T17:33:28;97880.19;;;17.32;55.86
60820;BME280;46641;48.904;9.126;2023-10-31T17:38:18;97876.94;;;17.30;55.67
60820;BME280;46641;48.904;9.126;2023-10-31T17:43:12;97877.16;;;17.28;55.77
60820;BME280;46641;48.904;9.126;2023-10-31T17:48:02;97894.03;;;17.27;55.81
60820;BME280;46641;48.904;9.126;2023-10-31T17:52:53;97899.31;;;17.27;55.62
60820;BME280;46641;48.904;9.126;2023-10-31T17:57:43;97909.09;;;17.27;55.85
60820;BME280;46641;48.904;9.126;2023-10-31T18:02:33;97914.56;;;17.25;55.70
60820;BME280;46641;48.904;9.126;2023-10-31T18:07:23;97921.91;;;17.23;56.08
60820;BME280;46641;48.904;9.126;2023-10-31T18:12:14;97932.50;;;17.23;55.87
60820;BME280;46641;48.904;9.126;2023-10-31T18:17:06;97947.75;;;17.21;56.00
60820;BME280;46641;48.904;9.126;2023-10-31T18:21:56;97953.44;;;17.18;55.86
60820;BME280;46641;48.904;9.126;2023-10-31T18:26:49;97957.94;;;17.18;55.88
60820;BME280;46641;48.904;9.126;2023-10-31T18:31:41;97960.78;;;17.16;55.92
60820;BME280;46641;48.904;9.126;2023-10-31T18:36:31;97964.63;;;17.14;56.02
60820;BME280;46641;48.904;9.126;2023-10-31T18:41:21;97969.94;;;17.14;56.14
60820;BME280;46641;48.904;9.126;2023-10-31T18:46:12;97978.88;;;17.13;56.00
60820;BME280;46641;48.904;9.126;2023-10-31T18:51:05;97980.69;;;17.12;56.08
60820;BME280;46641;48.904;9.126;2023-10-31T18:55:55;97977.25;;;17.12;56.02
60820;BME280;46641;48.904;9.126;2023-10-31T19:00:45;97972.97;;;17.11;56.04
60820;BME280;46641;48.904;9.126;2023-10-31T19:05:36;97976.44;;;17.11;56.11
60820;BME280;46641;48.904;9.126;2023-10-31T19:10:26;97977.47;;;17.10;56.07
60820;BME280;46641;48.904;9.126;2023-10-31T19:15:17;97983.97;;;17.08;56.11
60820;BME280;46641;48.904;9.126;2023-10-31T19:20:08;97990.28;;;17.07;55.94
60820;BME280;46641;48.904;9.126;2023-10-31T19:24:58;97987.63;;;17.07;56.08
60820;BME280;46641;48.904;9.126;2023-10-31T19:29:48;98001.84;;;17.05;56.20
60820;BME280;46641;48.904;9.126;2023-10-31T19:34:38;97998.59;;;17.03;56.29
60820;BME280;46641;48.904;9.126;2023-10-31T19:39:29;98000.63;;;17.01;56.14
60820;BME280;46641;48.904;9.126;2023-10-31T19:44:19;98005.91;;;17.01;56.35
60820;BME280;46641;48.904;9.126;2023-10-31T19:49:09;98005.09;;;17.01;56.09
60820;BME280;46641;48.904;9.126;2023-10-31T19:54:00;98008.78;;;17.00;56.25
60820;BME280;46641;48.904;9.126;2023-10-31T19:58:50;98000.84;;;17.00;56.22
60820;BME280;46641;48.904;9.126;2023-10-31T20:03:40;98010.78;;;16.98;56.27
60820;BME280;46641;48.904;9.126;2023-10-31T20:08:31;98010.78;;;16.98;56.11
60820;BME280;46641;48.904;9.126;2023-10-31T20:13:21;98019.75;;;16.97;56.54
60820;BME280;46641;48.904;9.126;2023-10-31T20:18:13;98018.09;;;16.96;56.32
60820;BME280;46641;48.904;9.126;2023-10-31T20:23:03;98011.19;;;16.95;56.31
60820;BME280;46641;48.904;9.126;2023-10-31T20:27:54;98012.81;;;16.96;56.31
60820;BME280;46641;48.904;9.126;2023-10-31T20:32:44;98024.41;;;16.95;56.22
60820;BME280;46641;48.904;9.126;2023-10-31T20:37:34;98016.69;;;16.93;56.35
60820;BME280;46641;48.904;9.126;2023-10-31T20:42:25;98022.16;;;16.92;56.56
60820;BME280;46641;48.904;9.126;2023-10-31T20:47:15;98015.25;;;16.91;56.45
60820;BME280;46641;48.904;9.126;2023-10-31T20:52:06;98027.84;;;16.89;56.46
60820;BME280;46641;48.904;9.126;2023-10-31T20:56:56;98036.00;;;16.87;56.49
60820;BME280;46641;48.904;9.126;2023-10-31T21:01:48;98040.25;;;16.88;56.49
60820;BME280;46641;48.904;9.126;2023-10-31T21:06:38;98036.81;;;16.88;56.56
60820;BME280;46641;48.904;9.126;2023-10-31T21:11:29;98028.06;;;16.87;56.47
60820;BME280;46641;48.904;9.126;2023-10-31T21:16:19;98028.25;;;16.86;56.54
60820;BME280;46641;48.904;9.126;2023-10-31T21:21:09;98025.59;;;16.86;56.40
60820;BME280;46641;48.904;9.126;2023-10-31T21:26:00;98024.78;;;16.85;56.38
60820;BME280;46641;48.904;9.126;2023-10-31T21:30:50;98013.59;;;16.83;56.46
60820;BME280;46641;48.904;9.126;2023-10-31T21:35:42;98007.88;;;16.79;56.59
60820;BME280;46641;48.904;9.126;2023-10-31T21:40:33;98018.47;;;16.79;56.47
60820;BME280;46641;48.904;9.126;2023-10-31T21:45:24;98026.38;;;16.79;56.47
60820;BME280;46641;48.904;9.126;2023-10-31T21:50:14;98017.06;;;16.77;56.60
60820;BME280;46641;48.904;9.126;2023-10-31T21:55:05;98014.59;;;16.75;56.51
60820;BME280;46641;48.904;9.126;2023-10-31T21:59:55;98022.88;;;16.72;56.53
60820;BME280;46641;48.904;9.126;2023-10-31T22:04:46;98024.91;;;16.70;56.74
60820;BME280;46641;48.904;9.126;2023-10-31T22:09:36;98037.13;;;16.71;56.85
60820;BME280;46641;48.904;9.126;2023-10-31T22:14:27;98025.94;;;16.69;56.67
60820;BME280;46641;48.904;9.126;2023-10-31T22:19:17;98022.88;;;16.66;56.64
60820;BME280;46641;48.904;9.126;2023-10-31T22:24:07;98024.06;;;16.63;56.78
60820;BME280;46641;48.904;9.126;2023-10-31T22:28:58;98016.16;;;16.63;56.62
60820;BME280;46641;48.904;9.126;2023-10-31T22:33:48;98024.88;;;16.64;56.73
60820;BME280;46641;48.904;9.126;2023-10-31T22:38:38;98022.44;;;16.62;56.79
60820;BME280;46641;48.904;9.126;2023-10-31T22:43:29;98030.78;;;16.59;56.71
60820;BME280;46641;48.904;9.126;2023-10-31T22:48:20;98030.34;;;16.55;56.82
60820;BME280;46641;48.904;9.126;2023-10-31T22:53:11;98014.50;;;16.55;57.00
60820;BME280;46641;48.904;9.126;2023-10-31T22:58:01;98020.81;;;16.54;56.88
60820;BME280;46641;48.904;9.126;2023-10-31T23:02:55;98019.97;;;16.54;56.72
60820;BME280;46641;48.904;9.126;2023-10-31T23:07:46;98011.44;;;16.52;56.87
60820;BME280;46641;48.904;9.126;2023-10-31T23:12:37;98005.34;;;16.51;56.77
60820;BME280;46641;48.904;9.126;2023-10-31T23:17:27;98007.38;;;16.49;57.01
60820;BME280;46641;48.904;9.126;2023-10-31T23:22:17;98010.41;;;16.46;56.93
60820;BME280;46641;48.904;9.126;2023-10-31T23:27:08;97998.41;;;16.44;56.92
60820;BME280;46641;48.904;9.126;2023-10-31T23:31:58;98002.88;;;16.43;57.05
60820;BME280;46641;48.904;9.126;2023-10-31T23:36:49;98002.88;;;16.43;57.04
60820;BME280;46641;48.904;9.126;2023-10-31T23:41:39;98002.88;;;16.43;57.07
60820;BME280;46641;48.904;9.126;2023-10-31T23:46:29;98005.31;;;16.45;56.94
60820;BME280;46641;48.904;9.126;2023-10-31T23:51:21;98010.19;;;16.41;57.05
60820;BME280;46641;48.904;9.126;2023-10-31T23:56:11;98011.81;;;16.42;57.07
